sensor_id;sensor_type;location;lat;lon;timestamp;pressure;altitude;pressure_sealevel;temperature;humidity
39769;BME280;38939;47.824;14.642;2023-03-29T00:00:59;97501.81;;;1.03;72.86
39769;BME280;38939;47.824;14.642;2023-03-29T00:02:02;97500.38;;;1.10;72.97
39769;BME280;38939;47.824;14.642;2023-03-29T00:03:04;97504.94;;;1.06;72.80
39769;BME280;38939;47.824;14.642;2023-03-29T00:04:08;97505.22;;;1.13;72.74
39769;BME280;38939;47.824;14.642;2023-03-29T00:05:11;97502.50;;;1.05;72.68
39769;BME280;38939;47.824;14.642;2023-03-29T00:06:13;97503.16;;;1.07;73.61
39769;BME280;38939;47.824;14.642;2023-03-29T00:07:23;97507.94;;;1.11;73.07
39769;BME280;38939;47.824;14.642;2023-03-29T00:08:26;97507.69;;;1.14;72.84
39769;BME280;38939;47.824;14.642;2023-03-29T00:09:31;97504.03;;;1.17;73.55
39769;BME280;38939;47.824;14.642;2023-03-29T00:10:36;97505.81;;;1.16;73.68
39769;BME280;38939;47.824;14.642;2023-03-29T00:11:38;97502.31;;;1.17;73.12
39769;BME280;38939;47.824;14.642;2023-03-29T00:12:40;97504.59;;;1.20;73.08
39769;BME280;38939;47.824;14.642;2023-03-29T00:13:43;97502.53;;;1.14;72.86
39769;BME280;38939;47.824;14.642;2023-03-29T00:14:45;97507.94;;;1.11;73.06
39769;BME280;38939;47.824;14.642;2023-03-29T00:15:47;97506.44;;;1.09;73.56
39769;BME280;38939;47.824;14.642;2023-03-29T00:16:48;97496.84;;;1.11;72.87
39769;BME280;38939;47.824;14.642;2023-03-29T00:17:51;97507.69;;;1.14;73.61
39769;BME280;38939;47.824;14.642;2023-03-29T00:18:53;97497.63;;;1.02;73.53
39769;BME280;38939;47.824;14.642;2023-03-29T00:19:56;97494.47;;;0.98;73.68
39769;BME280;38939;47.824;14.642;2023-03-29T00:20:59;97495.41;;;0.97;74.04
39769;BME280;38939;47.824;14.642;2023-03-29T00:22:02;97491.09;;;0.97;74.20
39769;BME280;38939;47.824;14.642;2023-03-29T00:23:07;97495.41;;;0.97;74.19
39769;BME280;38939;47.824;14.642;2023-03-29T00:24:09;97497.50;;;1.03;73.74
39769;BME280;38939;47.824;14.642;2023-03-29T00:25:12;97495.41;;;0.97;73.98
39769;BME280;38939;47.824;14.642;2023-03-29T00:26:14;97505.31;;;1.02;74.17
39769;BME280;38939;47.824;14.642;2023-03-29T00:27:16;97496.66;;;1.03;74.11
39769;BME280;38939;47.824;14.642;2023-03-29T00:28:18;97488.94;;;1.03;74.41
39769;BME280;38939;47.824;14.642;2023-03-29T00:29:20;97498.81;;;0.97;73.99
39769;BME280;38939;47.824;14.642;2023-03-29T00:30:22;97493.28;;;1.02;74.28
39769;BME280;38939;47.824;14.642;2023-03-29T00:31:24;97490.09;;;1.10;73.61
39769;BME280;38939;47.824;14.642;2023-03-29T00:32:28;97492.09;;;1.06;73.57
39769;BME280;38939;47.824;14.642;2023-03-29T00:33:30;97483.63;;;0.94;73.80
39769;BME280;38939;47.824;14.642;2023-03-29T00:34:33;97484.31;;;0.96;73.67
39769;BME280;38939;47.824;14.642;2023-03-29T00:35:38;97485.34;;;1.05;74.20
39769;BME280;38939;47.824;14.642;2023-03-29T00:36:40;97482.78;;;1.05;73.64
39769;BME280;38939;47.824;14.642;2023-03-29T00:37:42;97482.50;;;1.08;74.02
39769;BME280;38939;47.824;14.642;2023-03-29T00:38:44;97484.13;;;1.09;73.61
39769;BME280;38939;47.824;14.642;2023-03-29T00:39:46;97482.38;;;1.10;74.39
39769;BME280;38939;47.824;14.642;2023-03-29T00:40:48;97487.94;;;1.15;73.47
39769;BME280;38939;47.824;14.642;2023-03-29T00:41:50;97472.50;;;1.15;73.10
39769;BME280;38939;47.824;14.642;2023-03-29T00:42:52;97481.41;;;1.11;73.76
39769;BME280;38939;47.824;14.642;2023-03-29T00:43:59;97473.03;;;1.09;72.96
39769;BME280;38939;47.824;14.642;2023-03-29T00:46:10;97477.63;;;1.05;74.12
39769;BME280;38939;47.824;14.642;2023-03-29T00:47:12;97476.25;;;1.01;74.23
39769;BME280;38939;47.824;14.642;2023-03-29T00:48:23;97473.25;;;0.96;74.02
39769;BME280;38939;47.824;14.642;2023-03-29T00:49:27;97476.50;;;0.98;74.36
39769;BME280;38939;47.824;14.642;2023-03-29T00:50:37;97478.81;;;1.01;74.48
39769;BME280;38939;47.824;14.642;2023-03-29T00:51:40;97476.78;;;1.05;74.46
39769;BME280;38939;47.824;14.642;2023-03-29T00:52:51;97477.75;;;1.04;74.63
39769;BME280;38939;47.824;14.642;2023-03-29T00:53:58;97477.88;;;1.02;74.39
39769;BME280;38939;47.824;14.642;2023-03-29T00:55:07;97475.19;;;1.04;73.89
39769;BME280;38939;47.824;14.642;2023-03-29T00:56:19;97476.28;;;1.11;74.21
39769;BME280;38939;47.824;14.642;2023-03-29T00:57:25;97479.63;;;1.02;74.43
39769;BME280;38939;47.824;14.642;2023-03-29T00:58:36;97477.31;;;0.98;73.98
39769;BME280;38939;47.824;14.642;2023-03-29T00:59:39;97482.81;;;0.94;74.36
39769;BME280;38939;47.824;14.642;2023-03-29T01:00:51;97482.03;;;0.93;74.22
39769;BME280;38939;47.824;14.642;2023-03-29T01:01:58;97475.25;;;0.92;74.20
39769;BME280;38939;47.824;14.642;2023-03-29T01:03:07;97478.88;;;0.90;74.45
39769;BME280;38939;47.824;14.642;2023-03-29T01:04:24;97479.50;;;0.82;74.33
39769;BME280;38939;47.824;14.642;2023-03-29T01:05:34;97475.34;;;0.81;75.25
39769;BME280;38939;47.824;14.642;2023-03-29T01:06:39;97482.59;;;0.76;74.82
39769;BME280;38939;47.824;14.642;2023-03-29T01:08:06;97482.34;;;0.79;74.75
39769;BME280;38939;47.824;14.642;2023-03-29T01:09:13;97482.88;;;0.83;75.57
39769;BME280;38939;47.824;14.642;2023-03-29T01:11:45;97483.34;;;0.88;74.72
39769;BME280;38939;47.824;14.642;2023-03-29T01:12:52;97484.41;;;0.85;74.92
39769;BME280;38939;47.824;14.642;2023-03-29T01:14:32;97479.91;;;0.77;75.01
39769;BME280;38939;47.824;14.642;2023-03-29T01:15:36;97480.13;;;0.74;74.92
39769;BME280;38939;47.824;14.642;2023-03-29T01:16:41;97477.34;;;0.77;75.19
39769;BME280;38939;47.824;14.642;2023-03-29T01:17:44;97481.09;;;0.73;75.55
39769;BME280;38939;47.824;14.642;2023-03-29T01:18:51;97476.88;;;0.72;75.31
39769;BME280;38939;47.824;14.642;2023-03-29T01:20:02;97473.38;;;0.73;75.62
39769;BME280;38939;47.824;14.642;2023-03-29T01:28:31;97462.34;;;0.83;75.29
39769;BME280;38939;47.824;14.642;2023-03-29T01:29:42;97469.94;;;0.84;75.36
39769;BME280;38939;47.824;14.642;2023-03-29T01:31:01;97460.91;;;0.90;74.86
39769;BME280;38939;47.824;14.642;2023-03-29T01:32:46;97454.91;;;0.79;75.26
39769;BME280;38939;47.824;14.642;2023-03-29T01:33:44;97460.66;;;0.72;75.75
39769;BME280;38939;47.824;14.642;2023-03-29T01:34:59;97463.13;;;0.73;75.73
39769;BME280;38939;47.824;14.642;2023-03-29T01:36:32;97463.28;;;0.82;75.41
39769;BME280;38939;47.824;14.642;2023-03-29T01:38:02;97453.31;;;0.88;75.39
39769;BME280;38939;47.824;14.642;2023-03-29T01:39:07;97459.94;;;0.91;75.38
39769;BME280;38939;47.824;14.642;2023-03-29T01:40:10;97458.56;;;0.87;74.82
39769;BME280;38939;47.824;14.642;2023-03-29T01:41:13;97465.59;;;0.85;74.77
39769;BME280;38939;47.824;14.642;2023-03-29T01:42:28;97462.53;;;0.91;74.62
39769;BME280;38939;47.824;14.642;2023-03-29T01:43:33;97464.97;;;0.92;74.55
39769;BME280;38939;47.824;14.642;2023-03-29T01:44:45;97465.16;;;1.00;74.54
39769;BME280;38939;47.824;14.642;2023-03-29T01:47:31;97461.78;;;1.00;73.48
39769;BME280;38939;47.824;14.642;2023-03-29T01:50:15;97473.28;;;1.06;73.36
39769;BME280;38939;47.824;14.642;2023-03-29T01:51:30;97468.41;;;1.03;73.03
39769;BME280;38939;47.824;14.642;2023-03-29T01:52:49;97455.31;;;1.06;73.06
39769;BME280;38939;47.824;14.642;2023-03-29T01:53:58;97450.69;;;0.99;73.82
39769;BME280;38939;47.824;14.642;2023-03-29T01:55:08;97457.03;;;0.95;74.12
39769;BME280;38939;47.824;14.642;2023-03-29T01:56:23;97454.31;;;0.97;73.89
39769;BME280;38939;47.824;14.642;2023-03-29T01:57:27;97455.13;;;0.97;74.04
39769;BME280;38939;47.824;14.642;2023-03-29T01:58:35;97459.72;;;0.94;74.77
39769;BME280;38939;47.824;14.642;2023-03-29T01:59:41;97456.34;;;0.93;74.33
39769;BME280;38939;47.824;14.642;2023-03-29T02:00:45;97453.50;;;0.96;74.17
39769;BME280;38939;47.824;14.642;2023-03-29T02:01:48;97446.09;;;1.03;74.88
39769;BME280;38939;47.824;14.642;2023-03-29T02:02:51;97446.66;;;1.07;73.86
39769;BME280;38939;47.824;14.642;2023-03-29T02:03:59;97446.41;;;1.10;74.21
39769;BME280;38939;47.824;14.642;2023-03-29T02:05:04;97454.13;;;1.10;73.67
39769;BME280;38939;47.824;14.642;2023-03-29T02:06:09;97446.13;;;1.13;73.26
39769;BME280;38939;47.824;14.642;2023-03-29T02:07:15;97453.53;;;1.06;72.48
39769;BME280;38939;47.824;14.642;2023-03-29T02:08:19;97444.75;;;1.09;72.91
39769;BME280;38939;47.824;14.642;2023-03-29T02:09:23;97447.09;;;1.12;72.44
39769;BME280;38939;47.824;14.642;2023-03-29T02:10:26;97451.66;;;1.08;72.04
39769;BME280;38939;47.824;14.642;2023-03-29T02:11:29;97453.13;;;1.01;72.23
39769;BME280;38939;47.824;14.642;2023-03-29T02:12:31;97454.31;;;0.97;72.56
39769;BME280;38939;47.824;14.642;2023-03-29T02:13:34;97458.00;;;1.04;72.84
39769;BME280;38939;47.824;14.642;2023-03-29T02:14:36;97459.25;;;1.10;71.96
39769;BME280;38939;47.824;14.642;2023-03-29T02:15:39;97459.25;;;1.10;72.07
39769;BME280;38939;47.824;14.642;2023-03-29T02:16:41;97454.63;;;1.04;72.65
39769;BME280;38939;47.824;14.642;2023-03-29T02:17:43;97454.88;;;1.00;71.98
39769;BME280;38939;47.824;14.642;2023-03-29T02:18:48;97462.56;;;1.00;72.14
39769;BME280;38939;47.824;14.642;2023-03-29T02:21:33;97463.53;;;0.99;72.38
39769;BME280;38939;47.824;14.642;2023-03-29T02:22:42;97457.31;;;1.02;72.84
39769;BME280;38939;47.824;14.642;2023-03-29T02:23:48;97452.75;;;1.06;73.61
39769;BME280;38939;47.824;14.642;2023-03-29T02:24:53;97461.13;;;1.08;72.31
39769;BME280;38939;47.824;14.642;2023-03-29T02:26:01;97454.63;;;1.04;72.50
39769;BME280;38939;47.824;14.642;2023-03-29T02:27:04;97461.88;;;0.98;72.57
39769;BME280;38939;47.824;14.642;2023-03-29T02:28:06;97464.09;;;1.03;73.19
39769;BME280;38939;47.824;14.642;2023-03-29T02:29:09;97454.63;;;1.04;73.15
39769;BME280;38939;47.824;14.642;2023-03-29T02:30:12;97455.44;;;1.04;72.67
39769;BME280;38939;47.824;14.642;2023-03-29T02:31:37;97445.44;;;1.01;72.56
39769;BME280;38939;47.824;14.642;2023-03-29T02:34:05;97451.63;;;0.98;72.58
39769;BME280;38939;47.824;14.642;2023-03-29T02:35:13;97445.44;;;1.01;72.61
39769;BME280;38939;47.824;14.642;2023-03-29T02:36:20;97446.09;;;1.03;72.43
39769;BME280;38939;47.824;14.642;2023-03-29T02:37:26;97450.28;;;1.04;72.57
39769;BME280;38939;47.824;14.642;2023-03-29T02:38:31;97447.84;;;1.03;72.66
39769;BME280;38939;47.824;14.642;2023-03-29T02:39:34;97449.56;;;0.92;72.95
39769;BME280;38939;47.824;14.642;2023-03-29T02:40:38;97448.19;;;0.88;72.93
39769;BME280;38939;47.824;14.642;2023-03-29T02:41:45;97449.56;;;0.92;72.93
39769;BME280;38939;47.824;14.642;2023-03-29T02:42:48;97443.50;;;0.93;72.38
39769;BME280;38939;47.824;14.642;2023-03-29T02:43:51;97444.75;;;0.99;72.73
39769;BME280;38939;47.824;14.642;2023-03-29T02:44:56;97444.84;;;0.97;72.00
39769;BME280;38939;47.824;14.642;2023-03-29T02:46:00;97438.34;;;0.93;72.63
39769;BME280;38939;47.824;14.642;2023-03-29T02:47:14;97450.50;;;0.91;72.64
39769;BME280;38939;47.824;14.642;2023-03-29T02:48:19;97441.72;;;0.94;71.93
39769;BME280;38939;47.824;14.642;2023-03-29T02:49:22;97435.38;;;0.98;72.24
39769;BME280;38939;47.824;14.642;2023-03-29T02:50:27;97442.69;;;1.03;71.51
39769;BME280;38939;47.824;14.642;2023-03-29T02:51:32;97440.00;;;1.04;71.58
39769;BME280;38939;47.824;14.642;2023-03-29T02:52:37;97439.09;;;1.05;71.58
39769;BME280;38939;47.824;14.642;2023-03-29T02:53:47;97449.50;;;1.04;71.06
39769;BME280;38939;47.824;14.642;2023-03-29T02:54:51;97438.25;;;1.05;71.34
39769;BME280;38939;47.824;14.642;2023-03-29T02:55:55;97444.63;;;1.10;71.61
39769;BME280;38939;47.824;14.642;2023-03-29T02:56:58;97444.75;;;1.09;71.42
39769;BME280;38939;47.824;14.642;2023-03-29T02:58:02;97433.78;;;1.07;70.98
39769;BME280;38939;47.824;14.642;2023-03-29T02:59:09;97438.81;;;1.08;71.22
39769;BME280;38939;47.824;14.642;2023-03-29T03:00:15;97439.44;;;1.00;71.23
39769;BME280;38939;47.824;14.642;2023-03-29T03:01:19;97437.97;;;0.98;71.24
39769;BME280;38939;47.824;14.642;2023-03-29T03:02:22;97427.81;;;0.96;70.70
39769;BME280;38939;47.824;14.642;2023-03-29T03:03:26;97433.22;;;0.93;71.32
39769;BME280;38939;47.824;14.642;2023-03-29T03:04:30;97438.19;;;0.95;71.91
39769;BME280;38939;47.824;14.642;2023-03-29T03:05:33;97444.03;;;0.97;72.53
39769;BME280;38939;47.824;14.642;2023-03-29T03:06:36;97447.16;;;1.00;71.42
39769;BME280;38939;47.824;14.642;2023-03-29T03:07:38;97439.59;;;0.99;71.28
39769;BME280;38939;47.824;14.642;2023-03-29T03:08:41;97442.03;;;1.00;70.65
39769;BME280;38939;47.824;14.642;2023-03-29T03:09:43;97439.97;;;0.94;70.79
39769;BME280;38939;47.824;14.642;2023-03-29T03:10:45;97448.63;;;0.93;71.19
39769;BME280;38939;47.824;14.642;2023-03-29T03:11:47;97449.31;;;0.95;71.78
39769;BME280;38939;47.824;14.642;2023-03-29T03:12:49;97452.69;;;0.96;71.79
39769;BME280;38939;47.824;14.642;2023-03-29T03:13:51;97452.69;;;0.96;71.50
39769;BME280;38939;47.824;14.642;2023-03-29T03:14:53;97441.09;;;1.02;71.00
39769;BME280;38939;47.824;14.642;2023-03-29T03:15:55;97443.28;;;1.06;70.81
39769;BME280;38939;47.824;14.642;2023-03-29T03:16:57;97434.34;;;1.10;71.59
39769;BME280;38939;47.824;14.642;2023-03-29T03:18:01;97416.25;;;1.12;71.18
39769;BME280;38939;47.824;14.642;2023-03-29T03:19:04;97419.22;;;1.17;70.52
39769;BME280;38939;47.824;14.642;2023-03-29T03:20:08;97416.53;;;1.18;70.70
39769;BME280;38939;47.824;14.642;2023-03-29T03:21:14;97421.81;;;1.17;70.54
39769;BME280;38939;47.824;14.642;2023-03-29T03:22:16;97420.06;;;1.17;70.76
39769;BME280;38939;47.824;14.642;2023-03-29T03:23:18;97420.34;;;1.24;70.34
39769;BME280;38939;47.824;14.642;2023-03-29T03:24:20;97419.53;;;1.24;69.53
39769;BME280;38939;47.824;14.642;2023-03-29T03:25:23;97413.56;;;1.23;70.00
39769;BME280;38939;47.824;14.642;2023-03-29T03:26:25;97410.88;;;1.25;69.90
39769;BME280;38939;47.824;14.642;2023-03-29T03:27:30;97418.06;;;1.31;69.15
39769;BME280;38939;47.824;14.642;2023-03-29T03:28:34;97419.59;;;1.33;68.90
39769;BME280;38939;47.824;14.642;2023-03-29T03:29:36;97420.38;;;1.34;69.04
39769;BME280;38939;47.824;14.642;2023-03-29T03:30:39;97427.09;;;1.25;69.04
39769;BME280;38939;47.824;14.642;2023-03-29T03:31:41;97422.25;;;1.22;68.61
39769;BME280;38939;47.824;14.642;2023-03-29T03:32:43;97430.63;;;1.24;68.47
39769;BME280;38939;47.824;14.642;2023-03-29T03:33:45;97438.59;;;1.21;68.94
39769;BME280;38939;47.824;14.642;2023-03-29T03:34:47;97429.50;;;1.17;68.96
39769;BME280;38939;47.824;14.642;2023-03-29T03:35:50;97441.72;;;1.25;69.66
39769;BME280;38939;47.824;14.642;2023-03-29T03:36:52;97433.88;;;1.26;68.78
39769;BME280;38939;47.824;14.642;2023-03-29T03:37:58;97439.72;;;1.28;68.78
39769;BME280;38939;47.824;14.642;2023-03-29T03:39:01;97442.28;;;1.28;69.03
39769;BME280;38939;47.824;14.642;2023-03-29T03:40:07;97434.56;;;1.28;68.19
39769;BME280;38939;47.824;14.642;2023-03-29T03:41:09;97435.38;;;1.29;69.08
39769;BME280;38939;47.824;14.642;2023-03-29T03:42:11;97436.19;;;1.29;68.60
39769;BME280;38939;47.824;14.642;2023-03-29T03:43:13;97443.88;;;1.29;68.80
39769;BME280;38939;47.824;14.642;2023-03-29T03:44:15;97442.53;;;1.25;68.70
39769;BME280;38939;47.824;14.642;2023-03-29T03:45:17;97437.25;;;1.27;69.83
39769;BME280;38939;47.824;14.642;2023-03-29T03:46:19;97437.38;;;1.25;68.81
39769;BME280;38939;47.824;14.642;2023-03-29T03:47:22;97433.75;;;1.28;69.63
39769;BME280;38939;47.824;14.642;2023-03-29T03:48:24;97429.53;;;1.27;69.05
39769;BME280;38939;47.824;14.642;2023-03-29T03:49:26;97428.34;;;1.31;69.04
39769;BME280;38939;47.824;14.642;2023-03-29T03:50:28;97423.88;;;1.33;69.29
39769;BME280;38939;47.824;14.642;2023-03-29T03:51:30;97418.91;;;1.31;68.80
39769;BME280;38939;47.824;14.642;2023-03-29T03:52:32;97430.09;;;1.30;68.76
39769;BME280;38939;47.824;14.642;2023-03-29T03:53:34;97428.88;;;1.25;69.25
39769;BME280;38939;47.824;14.642;2023-03-29T03:54:36;97410.31;;;1.21;69.37
39769;BME280;38939;47.824;14.642;2023-03-29T03:55:38;97411.69;;;1.25;69.35
39769;BME280;38939;47.824;14.642;2023-03-29T03:56:40;97411.72;;;1.35;68.99
39769;BME280;38939;47.824;14.642;2023-03-29T03:57:43;97416.06;;;1.34;68.40
39769;BME280;38939;47.824;14.642;2023-03-29T03:58:45;97414.44;;;1.33;68.89
39769;BME280;38939;47.824;14.642;2023-03-29T03:59:48;97419.81;;;1.30;68.36
39769;BME280;38939;47.824;14.642;2023-03-29T04:00:50;97423.72;;;1.25;69.33
39769;BME280;38939;47.824;14.642;2023-03-29T04:01:52;97412.88;;;1.21;69.07
39769;BME280;38939;47.824;14.642;2023-03-29T04:02:54;97413.56;;;1.13;69.05
39769;BME280;38939;47.824;14.642;2023-03-29T04:03:56;97419.75;;;1.11;69.89
39769;BME280;38939;47.824;14.642;2023-03-29T04:04:59;97420.44;;;1.13;70.03
39769;BME280;38939;47.824;14.642;2023-03-29T04:06:04;97415.00;;;1.06;69.21
39769;BME280;38939;47.824;14.642;2023-03-29T04:07:07;97415.56;;;1.10;69.67
39769;BME280;38939;47.824;14.642;2023-03-29T04:08:10;97405.28;;;1.10;70.09
39769;BME280;38939;47.824;14.642;2023-03-29T04:09:13;97405.16;;;1.11;70.56
39769;BME280;38939;47.824;14.642;2023-03-29T04:10:15;97406.66;;;1.14;69.67
39769;BME280;38939;47.824;14.642;2023-03-29T04:11:17;97400.56;;;1.15;70.18
39769;BME280;38939;47.824;14.642;2023-03-29T04:12:19;97404.09;;;1.14;70.00
39769;BME280;38939;47.824;14.642;2023-03-29T04:13:22;97411.53;;;1.17;70.48
39769;BME280;38939;47.824;14.642;2023-03-29T04:14:25;97407.06;;;1.19;70.13
39769;BME280;38939;47.824;14.642;2023-03-29T04:15:28;97406.78;;;1.12;70.79
39769;BME280;38939;47.824;14.642;2023-03-29T04:16:30;97406.22;;;1.09;70.81
39769;BME280;38939;47.824;14.642;2023-03-29T04:17:32;97411.91;;;1.12;70.11
39769;BME280;38939;47.824;14.642;2023-03-29T04:18:35;97399.50;;;1.17;69.66
39769;BME280;38939;47.824;14.642;2023-03-29T04:19:37;97395.16;;;1.18;69.05
39769;BME280;38939;47.824;14.642;2023-03-29T04:20:39;97394.91;;;1.21;69.77
39769;BME280;38939;47.824;14.642;2023-03-29T04:21:41;97398.28;;;1.22;69.48
39769;BME280;38939;47.824;14.642;2023-03-29T04:22:46;97396.25;;;1.25;69.57
39769;BME280;38939;47.824;14.642;2023-03-29T04:23:48;97403.19;;;1.34;69.28
39769;BME280;38939;47.824;14.642;2023-03-29T04:24:51;97405.25;;;1.40;69.30
39769;BME280;38939;47.824;14.642;2023-03-29T04:25:54;97403.22;;;1.44;68.99
39769;BME280;38939;47.824;14.642;2023-03-29T04:26:57;97402.69;;;1.50;68.94
39769;BME280;38939;47.824;14.642;2023-03-29T04:27:59;97405.94;;;1.52;69.29
39769;BME280;38939;47.824;14.642;2023-03-29T04:29:01;97405.00;;;1.44;69.45
39769;BME280;38939;47.824;14.642;2023-03-29T04:30:04;97404.16;;;1.43;68.92
39769;BME280;38939;47.824;14.642;2023-03-29T04:31:12;97407.94;;;1.39;68.85
39769;BME280;38939;47.824;14.642;2023-03-29T04:32:14;97406.56;;;1.35;68.53
39769;BME280;38939;47.824;14.642;2023-03-29T04:33:16;97403.03;;;1.26;68.67
39769;BME280;38939;47.824;14.642;2023-03-29T04:34:19;97407.50;;;1.24;69.54
39769;BME280;38939;47.824;14.642;2023-03-29T04:35:21;97402.09;;;1.27;69.11
39769;BME280;38939;47.824;14.642;2023-03-29T04:36:24;97402.28;;;1.35;68.39
39769;BME280;38939;47.824;14.642;2023-03-29T04:37:27;97402.66;;;1.40;69.00
39769;BME280;38939;47.824;14.642;2023-03-29T04:38:30;97405.00;;;1.44;69.18
39769;BME280;38939;47.824;14.642;2023-03-29T04:39:36;97397.28;;;1.44;69.08
39769;BME280;38939;47.824;14.642;2023-03-29T04:40:39;97410.91;;;1.34;68.71
39769;BME280;38939;47.824;14.642;2023-03-29T04:41:41;97404.16;;;1.33;68.61
39769;BME280;38939;47.824;14.642;2023-03-29T04:42:44;97404.69;;;1.37;68.79
39769;BME280;38939;47.824;14.642;2023-03-29T04:43:48;97401.88;;;1.40;69.28
39769;BME280;38939;47.824;14.642;2023-03-29T04:44:50;97408.91;;;1.38;68.92
39769;BME280;38939;47.824;14.642;2023-03-29T04:45:52;97399.94;;;1.32;68.27
39769;BME280;38939;47.824;14.642;2023-03-29T04:46:55;97412.69;;;1.34;67.52
39769;BME280;38939;47.824;14.642;2023-03-29T04:47:57;97416.31;;;1.31;68.57
39769;BME280;38939;47.824;14.642;2023-03-29T04:49:03;97413.59;;;1.33;68.59
39769;BME280;38939;47.824;14.642;2023-03-29T04:50:06;97415.13;;;1.35;68.86
39769;BME280;38939;47.824;14.642;2023-03-29T04:51:08;97413.34;;;1.36;68.21
39769;BME280;38939;47.824;14.642;2023-03-29T04:52:10;97409.28;;;1.33;68.18
39769;BME280;38939;47.824;14.642;2023-03-29T04:53:13;97407.41;;;1.35;68.42
39769;BME280;38939;47.824;14.642;2023-03-29T04:54:15;97401.31;;;1.36;68.06
39769;BME280;38939;47.824;14.642;2023-03-29T04:55:17;97407.41;;;1.35;68.94
39769;BME280;38939;47.824;14.642;2023-03-29T04:56:19;97411.88;;;1.33;68.04
39769;BME280;38939;47.824;14.642;2023-03-29T04:57:21;97410.09;;;1.34;68.60
39769;BME280;38939;47.824;14.642;2023-03-29T04:58:23;97412.69;;;1.34;68.58
39769;BME280;38939;47.824;14.642;2023-03-29T04:59:32;97418.50;;;1.36;69.21
39769;BME280;38939;47.824;14.642;2023-03-29T05:00:34;97419.75;;;1.42;68.68
39769;BME280;38939;47.824;14.642;2023-03-29T05:01:36;97415.66;;;1.39;69.02
39769;BME280;38939;47.824;14.642;2023-03-29T05:02:38;97415.66;;;1.39;68.03
39769;BME280;38939;47.824;14.642;2023-03-29T05:03:40;97419.84;;;1.40;68.30
39769;BME280;38939;47.824;14.642;2023-03-29T05:04:42;97413.22;;;1.37;68.62
39769;BME280;38939;47.824;14.642;2023-03-29T05:05:44;97415.41;;;1.42;68.83
39769;BME280;38939;47.824;14.642;2023-03-29T05:06:46;97415.53;;;1.40;67.93
39769;BME280;38939;47.824;14.642;2023-03-29T05:07:49;97417.16;;;1.42;68.36
39769;BME280;38939;47.824;14.642;2023-03-29T05:08:51;97419.75;;;1.42;68.73
39769;BME280;38939;47.824;14.642;2023-03-29T05:09:54;97415.28;;;1.44;67.96
39769;BME280;38939;47.824;14.642;2023-03-29T05:10:56;97418.53;;;1.46;68.11
39769;BME280;38939;47.824;14.642;2023-03-29T05:11:58;97412.56;;;1.45;68.27
39769;BME280;38939;47.824;14.642;2023-03-29T05:13:00;97417.44;;;1.48;68.38
39769;BME280;38939;47.824;14.642;2023-03-29T05:14:04;97419.34;;;1.46;68.27
39769;BME280;38939;47.824;14.642;2023-03-29T05:15:08;97413.38;;;1.46;68.06
39769;BME280;38939;47.824;14.642;2023-03-29T05:16:10;97415.81;;;1.47;68.15
39769;BME280;38939;47.824;14.642;2023-03-29T05:17:12;97415.16;;;1.55;68.62
39769;BME280;38939;47.824;14.642;2023-03-29T05:18:15;97415.59;;;1.60;68.53
39769;BME280;38939;47.824;14.642;2023-03-29T05:19:17;97418.53;;;1.55;67.64
39769;BME280;38939;47.824;14.642;2023-03-29T05:20:22;97415.16;;;1.55;67.41
39769;BME280;38939;47.824;14.642;2023-03-29T05:21:25;97414.06;;;1.57;68.70
39769;BME280;38939;47.824;14.642;2023-03-29T05:22:29;97408.66;;;1.60;68.00
39769;BME280;38939;47.824;14.642;2023-03-29T05:23:32;97409.91;;;1.66;68.38
39769;BME280;38939;47.824;14.642;2023-03-29T05:24:35;97409.09;;;1.66;67.87
39769;BME280;38939;47.824;14.642;2023-03-29T05:25:37;97411.25;;;1.70;67.63
39769;BME280;38939;47.824;14.642;2023-03-29T05:26:39;97421.03;;;1.76;67.85
39769;BME280;38939;47.824;14.642;2023-03-29T05:27:41;97414.22;;;1.75;67.54
39769;BME280;38939;47.824;14.642;2023-03-29T05:28:43;97410.59;;;1.78;66.97
39769;BME280;38939;47.824;14.642;2023-03-29T05:29:46;97414.78;;;1.79;66.46
39769;BME280;38939;47.824;14.642;2023-03-29T05:31:00;97412.09;;;1.80;66.97
39769;BME280;38939;47.824;14.642;2023-03-29T05:32:03;97411.81;;;1.84;66.91
39769;BME280;38939;47.824;14.642;2023-03-29T05:33:05;97403.84;;;1.87;66.25
39769;BME280;38939;47.824;14.642;2023-03-29T05:34:07;97404.38;;;1.90;66.52
39769;BME280;38939;47.824;14.642;2023-03-29T05:35:09;97399.63;;;1.95;66.67
39769;BME280;38939;47.824;14.642;2023-03-29T05:36:13;97398.56;;;1.98;65.87
39769;BME280;38939;47.824;14.642;2023-03-29T05:37:16;97401.81;;;2.00;66.85
39769;BME280;38939;47.824;14.642;2023-03-29T05:38:18;97400.44;;;1.96;66.29
39769;BME280;38939;47.824;14.642;2023-03-29T05:39:20;97394.59;;;1.94;66.07
39769;BME280;38939;47.824;14.642;2023-03-29T05:40:23;97390.69;;;1.90;66.87
39769;BME280;38939;47.824;14.642;2023-03-29T05:41:27;97394.91;;;1.91;66.20
39769;BME280;38939;47.824;14.642;2023-03-29T05:42:30;97392.59;;;1.97;66.73
39769;BME280;38939;47.824;14.642;2023-03-29T05:43:32;97392.47;;;1.99;66.53
39769;BME280;38939;47.824;14.642;2023-03-29T05:44:34;97392.88;;;1.94;66.28
39769;BME280;38939;47.824;14.642;2023-03-29T05:45:36;97398.56;;;1.88;66.40
39769;BME280;38939;47.824;14.642;2023-03-29T05:46:38;97399.91;;;1.83;66.77
39769;BME280;38939;47.824;14.642;2023-03-29T05:47:40;97384.72;;;1.79;67.00
39769;BME280;38939;47.824;14.642;2023-03-29T05:48:42;97381.09;;;1.82;67.29
39769;BME280;38939;47.824;14.642;2023-03-29T05:49:44;97392.56;;;1.88;66.97
39769;BME280;38939;47.824;14.642;2023-03-29T05:50:48;97386.91;;;1.84;67.01
39769;BME280;38939;47.824;14.642;2023-03-29T05:51:50;97392.06;;;1.84;66.93
39769;BME280;38939;47.824;14.642;2023-03-29T05:52:53;97392.19;;;1.83;66.47
39769;BME280;38939;47.824;14.642;2023-03-29T05:53:55;97382.44;;;1.76;65.86
39769;BME280;38939;47.824;14.642;2023-03-29T05:54:57;97382.84;;;1.72;66.04
39769;BME280;38939;47.824;14.642;2023-03-29T05:56:00;97383.91;;;1.69;67.17
39769;BME280;38939;47.824;14.642;2023-03-29T05:57:03;97388.25;;;1.69;66.36
39769;BME280;38939;47.824;14.642;2023-03-29T05:58:05;97386.22;;;1.72;67.71